createdAt,value
2022-10-11T00:02:03.133Z,72.86
2022-10-11T00:04:29.872Z,73.37
2022-10-11T00:06:56.553Z,72.83
2022-10-11T00:09:23.274Z,72.92
2022-10-11T00:11:49.994Z,73.10
2022-10-11T00:14:16.725Z,73.10
2022-10-11T00:16:44.783Z,73.56
2022-10-11T00:19:12.006Z,74.09
2022-10-11T00:21:39.376Z,73.59
2022-10-11T00:24:06.686Z,74.35
2022-10-11T00:26:33.380Z,73.13
2022-10-11T00:29:02.470Z,72.74
2022-10-11T00:31:33.305Z,73.02
2022-10-11T00:34:02.191Z,72.73
2022-10-11T00:36:28.822Z,72.64
2022-10-11T00:38:55.560Z,72.25
2022-10-11T00:41:22.891Z,73.14
2022-10-11T00:44:08.939Z,72.73
2022-10-11T00:46:35.784Z,72.13
2022-10-11T00:49:45.401Z,71.97
2022-10-11T00:52:22.036Z,71.14
2022-10-11T00:54:49.495Z,70.70
2022-10-11T00:57:21.845Z,70.65
2022-10-11T00:59:52.617Z,71.14
2022-10-11T01:02:20.638Z,71.17
2022-10-11T01:04:47.587Z,71.95
2022-10-11T01:07:14.274Z,72.04
2022-10-11T01:09:40.936Z,72.09
2022-10-11T01:12:17.947Z,72.37
2022-10-11T01:15:05.511Z,72.75
2022-10-11T01:18:06.707Z,73.34
2022-10-11T01:20:51.314Z,72.93
2022-10-11T01:23:51.328Z,73.32
2022-10-11T01:26:18.030Z,74.10
2022-10-11T01:28:57.180Z,75.00
2022-10-11T01:31:32.172Z,74.70
2022-10-11T01:34:01.665Z,74.80
2022-10-11T01:36:46.796Z,74.58
2022-10-11T01:39:20.158Z,75.05
2022-10-11T01:41:51.180Z,74.71
2022-10-11T01:44:18.848Z,74.67
2022-10-11T01:46:45.571Z,75.46
2022-10-11T01:49:12.307Z,75.68
2022-10-11T01:51:52.741Z,76.37
2022-10-11T01:54:50.184Z,75.77
2022-10-11T01:57:26.388Z,76.05
2022-10-11T01:59:59.148Z,76.30
2022-10-11T02:02:51.664Z,76.36
2022-10-11T02:05:24.223Z,76.19
2022-10-11T02:08:14.442Z,76.25
2022-10-11T02:10:48.140Z,76.30
2022-10-11T02:13:39.972Z,76.54
2022-10-11T02:16:12.836Z,76.13
2022-10-11T02:18:45.872Z,76.68
2022-10-11T02:21:18.639Z,76.56
2022-10-11T02:23:51.229Z,75.94
2022-10-11T02:26:19.981Z,76.81
2022-10-11T02:28:49.256Z,76.98
2022-10-11T02:31:18.152Z,77.17
2022-10-11T02:33:59.104Z,77.06
2022-10-11T02:36:48.170Z,76.52
2022-10-11T02:39:31.516Z,76.28
2022-10-11T02:42:02.291Z,76.36
2022-10-11T02:44:35.750Z,75.83
2022-10-11T02:47:04.002Z,76.63
2022-10-11T02:49:32.091Z,76.85
2022-10-11T02:51:59.410Z,76.45
2022-10-11T02:54:26.327Z,76.54
2022-10-11T02:56:53.280Z,77.03
2022-10-11T02:59:19.965Z,76.89
2022-10-11T03:01:46.866Z,76.87
2022-10-11T03:04:14.057Z,76.85
2022-10-11T03:06:40.800Z,75.95
2022-10-11T03:09:07.502Z,77.57
2022-10-11T03:11:34.316Z,77.16
2022-10-11T03:14:00.956Z,77.89
2022-10-11T03:16:27.630Z,77.10
2022-10-11T03:18:54.262Z,78.23
2022-10-11T03:21:20.957Z,77.77
2022-10-11T03:23:47.657Z,77.72
2022-10-11T03:26:14.456Z,76.81
2022-10-11T03:28:41.475Z,76.87
2022-10-11T03:31:08.265Z,76.74
2022-10-11T03:33:34.946Z,76.27
2022-10-11T03:36:02.030Z,75.54
2022-10-11T03:38:28.883Z,76.30
2022-10-11T03:40:55.506Z,75.88
2022-10-11T03:43:22.286Z,76.50
2022-10-11T03:45:48.974Z,75.87
2022-10-11T03:48:15.768Z,75.49
2022-10-11T03:50:42.453Z,76.13
2022-10-11T03:53:09.421Z,76.22
2022-10-11T03:55:41.393Z,76.41
2022-10-11T03:58:08.417Z,75.73
2022-10-11T04:00:35.712Z,75.20
2022-10-11T04:03:03.972Z,74.78
2022-10-11T04:05:31.342Z,74.76
2022-10-11T04:07:58.092Z,75.37
2022-10-11T04:10:24.786Z,74.76
2022-10-11T04:12:51.409Z,75.44
2022-10-11T04:15:18.285Z,75.29
2022-10-11T04:17:45.117Z,75.50
2022-10-11T04:20:11.928Z,75.33
2022-10-11T04:22:38.703Z,75.66
2022-10-11T04:25:06.806Z,75.77
2022-10-11T04:27:33.734Z,75.67
2022-10-11T04:30:00.579Z,75.84
2022-10-11T04:32:27.961Z,74.99
2022-10-11T04:34:54.669Z,75.33
2022-10-11T04:37:21.441Z,75.04
2022-10-11T04:39:48.087Z,74.83
2022-10-11T04:42:14.850Z,75.71
2022-10-11T04:44:41.510Z,75.09
2022-10-11T04:47:08.190Z,75.11
2022-10-11T04:49:34.909Z,75.56
2022-10-11T04:52:01.660Z,75.68
2022-10-11T04:54:28.406Z,75.28
2022-10-11T04:56:55.088Z,75.78
2022-10-11T04:59:21.843Z,76.16
2022-10-11T05:01:48.570Z,76.41
2022-10-11T05:04:15.342Z,75.64
2022-10-11T05:06:42.062Z,76.07
2022-10-11T05:09:08.966Z,76.22
2022-10-11T05:11:35.751Z,75.51
2022-10-11T05:14:02.606Z,76.79
2022-10-11T05:16:29.297Z,76.89
2022-10-11T05:18:55.959Z,76.30
2022-10-11T05:21:28.472Z,76.51
2022-10-11T05:23:56.651Z,76.55
2022-10-11T05:26:25.601Z,76.65
2022-10-11T05:28:52.925Z,76.41
2022-10-11T05:31:20.390Z,77.50
2022-10-11T05:33:47.165Z,77.15
2022-10-11T05:36:14.372Z,78.15
2022-10-11T05:38:41.542Z,77.50
2022-10-11T05:41:12.646Z,77.82
2022-10-11T05:43:39.347Z,78.26
2022-10-11T05:46:16.403Z,77.63
2022-10-11T05:48:43.123Z,78.40
2022-10-11T05:51:11.621Z,77.59
2022-10-11T05:53:38.952Z,77.90
2022-10-11T05:56:16.749Z,77.06
2022-10-11T05:58:43.524Z,77.23
2022-10-11T06:01:22.991Z,77.28
2022-10-11T06:03:49.915Z,76.91
2022-10-11T06:06:17.427Z,76.61
2022-10-11T06:08:44.762Z,77.57
2022-10-11T06:11:17.745Z,77.81
2022-10-11T06:13:44.802Z,77.29
2022-10-11T06:16:12.488Z,78.03
2022-10-11T06:18:39.586Z,77.38
2022-10-11T06:21:06.581Z,77.52
2022-10-11T06:23:33.231Z,77.98
2022-10-11T06:26:02.599Z,77.85
2022-10-11T06:28:29.994Z,77.48
2022-10-11T06:30:57.514Z,78.57
2022-10-11T06:33:24.925Z,78.09
2022-10-11T06:36:04.810Z,79.01
2022-10-11T06:38:31.750Z,78.62
2022-10-11T06:40:58.470Z,79.70
2022-10-11T06:43:25.435Z,79.23
2022-10-11T06:45:52.107Z,79.46
2022-10-11T06:48:18.783Z,79.13
2022-10-11T06:50:59.528Z,79.00
2022-10-11T06:53:27.874Z,79.39
2022-10-11T06:55:54.526Z,79.78
2022-10-11T06:58:21.264Z,80.23
2022-10-11T07:00:47.967Z,80.22
2022-10-11T07:03:14.742Z,79.56
2022-10-11T07:05:41.371Z,79.85
2022-10-11T07:08:08.078Z,79.60
2022-10-11T07:10:35.702Z,79.80
2022-10-11T07:13:03.207Z,80.13
2022-10-11T07:15:30.082Z,80.94
2022-10-11T07:17:56.775Z,80.45
2022-10-11T07:20:31.590Z,80.27
2022-10-11T07:22:58.373Z,80.21
2022-10-11T07:25:25.059Z,79.78
2022-10-11T07:27:51.738Z,79.46
2022-10-11T07:30:18.504Z,79.74
2022-10-11T07:32:45.184Z,79.94
2022-10-11T07:35:11.918Z,80.19
2022-10-11T07:37:38.658Z,79.04
2022-10-11T07:40:06.997Z,79.13
2022-10-11T07:42:33.718Z,80.04
2022-10-11T07:45:00.361Z,79.43
2022-10-11T07:47:27.040Z,80.37
2022-10-11T07:49:53.733Z,80.09
2022-10-11T07:52:20.456Z,80.15
2022-10-11T07:54:50.114Z,79.90
2022-10-11T07:57:16.824Z,81.16
2022-10-11T07:59:47.826Z,80.98
2022-10-11T08:02:16.747Z,80.89
2022-10-11T08:04:43.828Z,80.86
2022-10-11T08:07:10.517Z,80.62
2022-10-11T08:09:37.192Z,80.72
2022-10-11T08:12:03.908Z,80.18
2022-10-11T08:14:33.488Z,80.97
2022-10-11T08:17:00.203Z,80.14
2022-10-11T08:19:26.900Z,80.07
2022-10-11T08:21:53.685Z,79.53
2022-10-11T08:24:21.025Z,78.52
2022-10-11T08:26:48.099Z,78.79
2022-10-11T08:29:14.938Z,78.14
2022-10-11T08:31:41.630Z,78.27
2022-10-11T08:34:08.373Z,79.10
2022-10-11T08:36:35.136Z,78.70
2022-10-11T08:39:01.871Z,78.57
2022-10-11T08:41:37.866Z,78.50
2022-10-11T08:44:13.384Z,78.55
2022-10-11T08:46:45.555Z,78.19
2022-10-11T08:49:15.480Z,78.17
2022-10-11T08:51:46.802Z,78.59
2022-10-11T08:54:45.458Z,78.79
2022-10-11T08:57:16.563Z,79.16
2022-10-11T08:59:51.241Z,79.08
2022-10-11T09:03:06.478Z,79.18
2022-10-11T09:05:34.735Z,78.62
2022-10-11T09:08:39.933Z,78.34
2022-10-11T09:11:13.474Z,77.79
2022-10-11T09:14:05.788Z,78.25
2022-10-11T09:16:45.002Z,77.29
2022-10-11T09:19:49.385Z,78.16
2022-10-11T09:22:43.608Z,78.32
2022-10-11T09:25:27.536Z,78.62
2022-10-11T09:28:24.014Z,78.10
2022-10-11T09:30:54.818Z,77.75
2022-10-11T09:33:38.749Z,76.55
2022-10-11T09:36:18.980Z,75.31
2022-10-11T09:38:56.738Z,74.36
2022-10-11T09:41:33.297Z,73.74
2022-10-11T09:46:42.393Z,69.09
2022-10-11T09:49:14.401Z,69.14
2022-10-11T09:51:50.917Z,69.03
2022-10-11T09:54:20.666Z,69.41
2022-10-11T09:56:47.484Z,68.56
2022-10-11T09:59:26.521Z,66.11
2022-10-11T10:02:20.602Z,65.74
2022-10-11T10:04:58.270Z,66.37
2022-10-11T10:07:26.074Z,67.12
2022-10-11T10:09:53.214Z,68.59
2022-10-11T10:12:27.441Z,68.50
2022-10-11T10:15:14.020Z,68.60
2022-10-11T10:17:49.668Z,69.15
2022-10-11T10:20:50.498Z,69.14
2022-10-11T10:23:25.006Z,68.84
2022-10-11T10:25:53.051Z,69.23
2022-10-11T10:28:27.373Z,69.54
2022-10-11T10:30:57.252Z,70.94
2022-10-11T10:33:27.085Z,71.69
2022-10-11T10:36:03.297Z,72.19
2022-10-11T10:38:37.520Z,72.05
2022-10-11T10:41:09.318Z,73.95
2022-10-11T10:43:38.800Z,74.48
2022-10-11T10:46:31.657Z,75.78
2022-10-11T10:49:34.498Z,75.90
2022-10-11T10:51:57.884Z,76.47
2022-10-11T10:54:30.440Z,76.20
2022-10-11T10:57:03.926Z,76.79
2022-10-11T10:59:52.530Z,76.30
2022-10-11T11:02:41.618Z,76.58
2022-10-11T11:05:23.698Z,76.75
2022-10-11T11:07:54.078Z,76.66
2022-10-11T11:10:33.929Z,75.84
2022-10-11T11:13:09.859Z,75.49
2022-10-11T11:15:45.121Z,73.96
2022-10-11T11:18:43.624Z,74.29
2022-10-11T11:21:40.540Z,74.31
2022-10-11T11:24:39.550Z,74.14
2022-10-11T11:27:12.205Z,73.10
2022-10-11T11:29:55.335Z,72.89
2022-10-11T11:32:45.718Z,71.35
2022-10-11T11:35:24.573Z,70.11
2022-10-11T11:38:01.383Z,68.94
2022-10-11T11:40:44.403Z,69.21
2022-10-11T11:43:23.593Z,69.12
2022-10-11T11:45:56.588Z,68.92
2022-10-11T11:48:25.349Z,68.80
2022-10-11T11:51:31.528Z,69.65
2022-10-11T11:54:13.187Z,69.36
2022-10-11T11:56:56.621Z,70.75
2022-10-11T11:59:33.810Z,70.88
2022-10-11T12:02:19.244Z,71.10
2022-10-11T12:04:48.460Z,71.24
2022-10-11T12:07:18.514Z,70.96
2022-10-11T12:10:18.506Z,70.16
2022-10-11T12:12:45.561Z,69.65
2022-10-11T12:15:26.128Z,70.32
2022-10-11T12:17:58.519Z,71.19
2022-10-11T12:20:31.664Z,72.14
2022-10-11T12:23:20.248Z,72.81
2022-10-11T12:26:18.609Z,73.92
2022-10-11T12:29:07.628Z,74.73
2022-10-11T12:31:36.481Z,75.17
2022-10-11T12:34:16.959Z,75.94
2022-10-11T12:36:50.905Z,75.96
2022-10-11T12:39:20.699Z,76.16
2022-10-11T12:41:47.372Z,76.97
2022-10-11T12:44:21.007Z,76.27
2022-10-11T12:46:50.541Z,76.64
2022-10-11T12:49:39.083Z,77.23
2022-10-11T12:52:17.849Z,77.04
2022-10-11T12:55:12.355Z,76.93
2022-10-11T12:58:06.010Z,76.69
2022-10-11T13:00:52.949Z,76.91
2022-10-11T13:03:35.265Z,76.67
2022-10-11T13:06:25.063Z,77.09
2022-10-11T13:09:18.233Z,77.13
2022-10-11T13:11:54.074Z,76.48
2022-10-11T13:14:26.247Z,76.24
2022-10-11T13:17:19.404Z,76.05
2022-10-11T13:19:50.643Z,75.34
2022-10-11T13:22:23.241Z,74.30
2022-10-11T13:24:50.053Z,74.40
2022-10-11T13:27:27.346Z,74.27
2022-10-11T13:29:59.355Z,74.13
2022-10-11T13:32:30.229Z,74.55
2022-10-11T13:35:14.703Z,73.67
2022-10-11T13:37:45.824Z,73.27
2022-10-11T13:40:18.497Z,73.85
2022-10-11T13:42:46.254Z,74.40
2022-10-11T13:45:14.398Z,74.14
2022-10-11T13:47:41.233Z,74.13
2022-10-11T13:50:13.963Z,74.09
2022-10-11T13:52:57.210Z,73.84
2022-10-11T13:55:30.530Z,74.01
2022-10-11T13:57:59.572Z,74.16
2022-10-11T14:00:39.167Z,73.31
2022-10-11T14:03:14.975Z,73.70
2022-10-11T14:05:51.566Z,73.77
2022-10-11T14:08:27.102Z,73.00
2022-10-11T14:10:57.149Z,73.02
2022-10-11T14:13:29.148Z,72.45
2022-10-11T14:16:08.525Z,72.42
2022-10-11T14:18:45.305Z,72.41
2022-10-11T14:21:27.044Z,72.72
2022-10-11T14:23:56.534Z,72.12
2022-10-11T14:26:24.418Z,71.56
2022-10-11T14:28:58.100Z,71.29
2022-10-11T14:31:28.921Z,71.51
2022-10-11T14:33:56.577Z,71.98
2022-10-11T14:36:23.883Z,71.24
2022-10-11T14:38:52.369Z,70.72
2022-10-11T14:41:19.443Z,70.89
2022-10-11T14:43:46.256Z,70.92
2022-10-11T14:46:25.154Z,71.04
2022-10-11T14:48:56.547Z,70.18
2022-10-11T14:51:29.607Z,70.71
2022-10-11T14:53:56.427Z,70.26
2022-10-11T14:56:23.203Z,70.74
2022-10-11T14:58:50.024Z,70.65
2022-10-11T15:01:17.739Z,70.90
2022-10-11T15:03:44.757Z,70.85
2022-10-11T15:06:26.450Z,70.47
2022-10-11T15:08:53.101Z,70.55
2022-10-11T15:11:21.715Z,70.79
2022-10-11T15:13:49.207Z,71.05
2022-10-11T15:16:19.609Z,72.15
2022-10-11T15:18:51.860Z,72.07
2022-10-11T15:21:24.257Z,72.22
2022-10-11T15:23:52.290Z,72.11
2022-10-11T15:26:22.009Z,72.34
2022-10-11T15:28:49.112Z,72.48
2022-10-11T15:31:16.576Z,72.54
2022-10-11T15:33:43.758Z,72.42
2022-10-11T15:36:19.005Z,72.49
2022-10-11T15:38:46.937Z,72.65
2022-10-11T15:41:15.737Z,72.71
2022-10-11T15:43:43.951Z,72.96
2022-10-11T15:46:15.306Z,72.99
2022-10-11T15:48:41.838Z,73.23
2022-10-11T15:51:08.492Z,73.16
2022-10-11T15:53:35.325Z,73.31
2022-10-11T15:56:06.028Z,73.55
2022-10-11T15:58:35.377Z,73.82
2022-10-11T16:01:11.731Z,73.68
2022-10-11T16:03:38.540Z,74.41
2022-10-11T16:06:06.025Z,74.84
2022-10-11T16:08:34.147Z,74.74
2022-10-11T16:11:32.636Z,74.97
2022-10-11T16:13:59.378Z,74.97
2022-10-11T16:16:26.027Z,75.08
2022-10-11T16:18:52.992Z,74.97
2022-10-11T16:21:21.010Z,75.31
2022-10-11T16:23:47.747Z,75.39
2022-10-11T16:26:16.475Z,75.66
2022-10-11T16:28:43.615Z,75.99
2022-10-11T16:31:14.215Z,76.17
2022-10-11T16:33:45.945Z,76.32
2022-10-11T16:36:40.340Z,76.45
2022-10-11T16:39:16.940Z,76.15
2022-10-11T16:41:44.492Z,76.61
2022-10-11T16:44:15.782Z,76.72
2022-10-11T16:46:43.296Z,76.40
2022-10-11T16:49:10.047Z,76.81
2022-10-11T16:51:36.810Z,77.01
2022-10-11T16:54:03.818Z,77.34
2022-10-11T16:56:32.525Z,77.71
2022-10-11T16:59:00.831Z,78.02
2022-10-11T17:01:28.112Z,78.60
2022-10-11T17:03:55.783Z,78.64
2022-10-11T17:06:23.380Z,79.17
2022-10-11T17:08:50.604Z,78.88
2022-10-11T17:11:22.313Z,79.12
2022-10-11T17:13:50.166Z,78.96
2022-10-11T17:16:17.512Z,79.05
2022-10-11T17:18:44.354Z,78.99
2022-10-11T17:21:14.245Z,79.02
2022-10-11T17:23:41.720Z,79.09
2022-10-11T17:26:11.617Z,79.46
2022-10-11T17:28:38.791Z,79.23
2022-10-11T17:31:06.509Z,79.71
2022-10-11T17:33:33.526Z,79.88
2022-10-11T17:36:01.063Z,80.13
2022-10-11T17:38:28.175Z,80.73
2022-10-11T17:41:02.349Z,80.86
2022-10-11T17:43:30.004Z,81.50
2022-10-11T17:45:58.517Z,81.83
2022-10-11T17:48:26.941Z,82.23
2022-10-11T17:50:54.175Z,82.41
2022-10-11T17:53:21.491Z,82.66
2022-10-11T17:55:51.545Z,82.53
2022-10-11T17:58:18.414Z,82.00
2022-10-11T18:00:45.296Z,82.07
2022-10-11T18:03:12.038Z,82.25
2022-10-11T18:05:42.024Z,82.14
2022-10-11T18:08:09.002Z,82.14
2022-10-11T18:10:38.566Z,82.12
2022-10-11T18:13:06.761Z,81.98
2022-10-11T18:15:34.185Z,81.90
2022-10-11T18:18:00.993Z,81.85
2022-10-11T18:20:27.643Z,81.97
2022-10-11T18:22:54.393Z,81.74
2022-10-11T18:25:21.185Z,81.82
2022-10-11T18:27:47.918Z,81.81
2022-10-11T18:30:14.763Z,81.67
2022-10-11T18:32:41.528Z,81.71
2022-10-11T18:35:08.662Z,81.96
2022-10-11T18:37:35.389Z,82.18
2022-10-11T18:40:02.198Z,82.30
2022-10-11T18:42:28.888Z,82.40
2022-10-11T18:44:56.943Z,82.21
2022-10-11T18:47:23.598Z,82.25
2022-10-11T18:49:50.285Z,82.26
2022-10-11T18:52:17.050Z,82.58
2022-10-11T18:54:43.815Z,82.36
2022-10-11T18:57:10.469Z,82.51
2022-10-11T18:59:37.229Z,82.94
2022-10-11T19:02:04.926Z,83.09
2022-10-11T19:04:34.245Z,83.02
2022-10-11T19:07:01.109Z,83.25
2022-10-11T19:09:28.813Z,83.25
2022-10-11T19:11:57.265Z,83.67
2022-10-11T19:14:26.632Z,83.40
2022-10-11T19:16:54.549Z,83.59
2022-10-11T19:19:24.939Z,83.88
2022-10-11T19:21:52.395Z,83.53
2022-10-11T19:24:22.066Z,83.72
2022-10-11T19:26:50.092Z,83.79
2022-10-11T19:29:19.708Z,84.18
2022-10-11T19:31:52.009Z,83.83
2022-10-11T19:34:20.145Z,83.99
2022-10-11T19:36:50.081Z,84.13
2022-10-11T19:39:18.423Z,84.41
2022-10-11T19:41:45.552Z,84.18
2022-10-11T19:44:13.089Z,84.33
2022-10-11T19:46:55.393Z,84.33
2022-10-11T19:49:25.156Z,84.01
2022-10-11T19:51:53.457Z,84.20
2022-10-11T19:54:20.356Z,84.50
2022-10-11T19:56:47.521Z,84.37
2022-10-11T19:59:15.042Z,84.56
2022-10-11T20:01:42.256Z,84.34
2022-10-11T20:04:22.916Z,84.00
2022-10-11T20:06:54.384Z,84.23
2022-10-11T20:09:29.942Z,84.25
2022-10-11T20:11:57.631Z,84.27
2022-10-11T20:14:24.531Z,84.71
2022-10-11T20:16:51.227Z,85.03
2022-10-11T20:19:18.758Z,84.96
2022-10-11T20:21:45.718Z,85.03
2022-10-11T20:24:12.796Z,84.85
2022-10-11T20:26:39.981Z,85.17
2022-10-11T20:29:06.938Z,84.95
2022-10-11T20:31:38.034Z,85.38
2022-10-11T20:34:07.325Z,85.17
2022-10-11T20:36:36.118Z,84.98
2022-10-11T20:39:04.787Z,85.42
2022-10-11T20:41:36.937Z,85.20
2022-10-11T20:44:04.828Z,85.07
2022-10-11T20:46:36.949Z,85.01
2022-10-11T20:49:06.580Z,84.92
2022-10-11T20:51:35.718Z,84.80
2022-10-11T20:54:02.473Z,84.93
2022-10-11T20:56:29.980Z,84.42
2022-10-11T20:58:58.216Z,84.63
2022-10-11T21:01:27.886Z,84.55
2022-10-11T21:03:57.050Z,84.55
2022-10-11T21:06:23.746Z,84.47
2022-10-11T21:08:50.509Z,84.50
2022-10-11T21:11:17.234Z,84.15
2022-10-11T21:13:43.986Z,84.27
2022-10-11T21:16:16.127Z,84.28
2022-10-11T21:18:42.996Z,84.45
2022-10-11T21:21:11.955Z,84.97
2022-10-11T21:23:39.556Z,84.89
2022-10-11T21:26:09.098Z,85.08
2022-10-11T21:28:35.883Z,85.49
2022-10-11T21:31:07.705Z,85.55
2022-10-11T21:33:35.664Z,85.57
2022-10-11T21:36:19.513Z,85.94
2022-10-11T21:38:46.707Z,86.07
2022-10-11T21:41:21.844Z,86.29
2022-10-11T21:43:52.759Z,86.28
2022-10-11T21:46:41.721Z,86.81
2022-10-11T21:49:12.016Z,86.60
2022-10-11T21:51:38.764Z,87.27
2022-10-11T21:54:05.764Z,87.19
2022-10-11T21:56:32.549Z,86.66
2022-10-11T21:58:59.398Z,87.21
2022-10-11T22:01:28.380Z,87.24
2022-10-11T22:03:55.304Z,87.57
2022-10-11T22:06:22.226Z,87.85
2022-10-11T22:08:52.746Z,87.19
2022-10-11T22:11:19.487Z,87.24
2022-10-11T22:13:46.254Z,87.51
2022-10-11T22:16:18.686Z,87.31
2022-10-11T22:18:45.498Z,87.45
2022-10-11T22:21:20.405Z,87.52
2022-10-11T22:23:49.037Z,87.25
2022-10-11T22:26:21.423Z,87.69
2022-10-11T22:28:48.329Z,87.33
2022-10-11T22:31:17.317Z,87.01
2022-10-11T22:36:12.918Z,87.49
2022-10-11T22:38:41.581Z,87.82
2022-10-11T22:41:08.480Z,87.60
2022-10-11T22:43:36.328Z,87.20
2022-10-11T22:46:05.611Z,87.46
2022-10-11T22:48:32.398Z,87.60
2022-10-11T22:50:59.413Z,87.29
2022-10-11T22:53:26.089Z,87.25
2022-10-11T22:55:52.843Z,87.34
2022-10-11T22:58:19.538Z,87.17
2022-10-11T23:00:46.254Z,87.32
2022-10-11T23:03:14.503Z,87.36
2022-10-11T23:05:41.503Z,87.34
2022-10-11T23:08:09.602Z,86.98
2022-10-11T23:10:40.204Z,87.39
2022-10-11T23:13:07.213Z,86.94
2022-10-11T23:15:34.004Z,87.13
2022-10-11T23:18:00.725Z,87.04
2022-10-11T23:20:27.465Z,86.91
2022-10-11T23:22:54.153Z,87.05
2022-10-11T23:25:20.876Z,87.07
2022-10-11T23:27:47.562Z,86.86
2022-10-11T23:30:14.663Z,87.24
2022-10-11T23:32:41.385Z,86.74
2022-10-11T23:35:08.304Z,86.30
2022-10-11T23:37:35.330Z,86.28
2022-10-11T23:40:02.355Z,86.32
2022-10-11T23:42:29.172Z,85.62
2022-10-11T23:44:55.981Z,86.14
2022-10-11T23:47:22.732Z,86.13
2022-10-11T23:49:49.411Z,86.00
2022-10-11T23:52:16.068Z,86.24
2022-10-11T23:54:42.739Z,85.71
2022-10-11T23:57:09.428Z,85.25
2022-10-11T23:59:36.036Z,85.04
